Time;durP1;ratioP1;P1;durP2;ratioP2;P2;SDS_P1;SDS_P2;PMS_P1;PMS_P2;Temp;Humidity;BMP_temperature;BMP_pressure;BME280_temperature;BME280_humidity;BME280_pressure;Samples;Min_cycle;Max_cycle;Signal;HPM_P1;HPM_P2
2023/08/04 00:01:58;;;;;;;0.60;0.60;;;15.40;99.90;;;;;;4966238;28;20065;-85
2023/08/04 00:04:23;;;;;;;0.23;0.23;;;15.40;99.90;;;;;;4968087;28;20095;-86
2023/08/04 00:06:49;;;;;;;0.00;0.00;;;15.40;99.90;;;;;;4970961;28;20047;-89
2023/08/04 00:09:16;;;;;;;0.17;0.17;;;15.50;99.90;;;;;;4974283;28;20019;-87
2023/08/04 00:11:42;;;;;;;0.17;0.17;;;15.50;99.90;;;;;;4980971;28;20026;-88
2023/08/04 00:14:07;;;;;;;0.67;0.60;;;15.40;99.90;;;;;;4978110;28;20522;-88
2023/08/04 00:16:33;;;;;;;0.20;0.20;;;15.40;99.90;;;;;;4971648;28;20486;-88
2023/08/04 00:18:59;;;;;;;1.27;1.17;;;15.30;99.90;;;;;;4991186;28;20864;-87
2023/08/04 00:21:25;;;;;;;0.10;0.10;;;15.20;99.90;;;;;;4976035;28;20053;-87
2023/08/04 00:23:57;;;;;;;0.67;0.67;;;15.10;99.90;;;;;;4975045;28;20865;-89
2023/08/04 00:26:23;;;;;;;0.10;0.10;;;15.10;99.90;;;;;;4957927;28;20109;-89
2023/08/04 00:28:49;;;;;;;0.10;0.10;;;14.80;99.90;;;;;;4976077;28;20117;-87
2023/08/04 00:31:14;;;;;;;0.20;0.20;;;14.70;99.90;;;;;;4980113;28;20465;-89
2023/08/04 00:33:40;;;;;;;9.63;0.93;;;14.80;99.90;;;;;;4978723;28;20062;-86
2023/08/04 00:36:06;;;;;;;0.30;0.30;;;14.70;99.90;;;;;;4973854;28;20109;-87
2023/08/04 00:38:31;;;;;;;0.37;0.37;;;14.80;99.90;;;;;;4976442;28;20035;-88
2023/08/04 00:40:57;;;;;;;0.93;0.93;;;14.90;99.90;;;;;;4973740;28;20077;-87
2023/08/04 00:43:23;;;;;;;0.17;0.17;;;14.90;99.90;;;;;;4982966;28;20027;-86
2023/08/04 00:45:49;;;;;;;1.40;1.30;;;15.00;99.90;;;;;;4972751;28;20054;-86
2023/08/04 00:48:14;;;;;;;0.03;0.03;;;14.90;99.90;;;;;;4982629;28;20034;-87
2023/08/04 00:50:40;;;;;;;0.20;0.20;;;14.90;99.90;;;;;;4972613;28;20077;-86
2023/08/04 00:53:07;;;;;;;0.10;0.10;;;14.80;99.90;;;;;;4969833;28;20038;-86
2023/08/04 00:55:35;;;;;;;0.00;0.00;;;14.80;99.90;;;;;;4968413;28;20104;-86
2023/08/04 00:58:01;;;;;;;0.10;0.10;;;14.70;99.90;;;;;;4972280;28;20026;-86
2023/08/04 01:00:27;;;;;;;0.10;0.10;;;14.50;99.90;;;;;;4983222;28;20117;-87
2023/08/04 01:02:52;;;;;;;0.10;0.10;;;14.50;99.90;;;;;;4978943;28;20416;-87
2023/08/04 01:05:18;;;;;;;0.30;0.30;;;14.50;99.90;;;;;;4964074;28;20528;-87
2023/08/04 01:08:08;;;;;;;0.10;0.10;;;14.50;99.90;;;;;;4972418;28;20027;-85
2023/08/04 01:10:46;;;;;;;0.30;0.30;;;14.70;99.90;;;;;;4968953;28;20326;-86
2023/08/04 01:13:18;;;;;;;0.20;0.20;;;14.90;99.90;;;;;;4975094;28;20035;-86
2023/08/04 01:15:44;;;;;;;0.00;0.00;;;15.00;99.90;;;;;;4971441;28;20483;-89
2023/08/04 01:18:10;;;;;;;0.10;0.10;;;15.20;99.90;;;;;;4968435;28;20700;-83
2023/08/04 01:20:35;;;;;;;0.03;0.03;;;15.30;99.90;;;;;;4965149;28;20038;-86
2023/08/04 01:23:01;;;;;;;0.10;0.10;;;15.30;99.90;;;;;;4964055;28;20038;-87
2023/08/04 01:25:33;;;;;;;0.70;0.70;;;15.40;99.90;;;;;;4964853;28;20102;-86
2023/08/04 01:28:09;;;;;;;0.10;0.10;;;15.40;99.90;;;;;;4966290;28;20035;-85
2023/08/04 01:30:36;;;;;;;0.00;0.00;;;15.30;99.90;;;;;;4964801;28;20035;-86
2023/08/04 01:33:01;;;;;;;0.10;0.10;;;15.40;99.90;;;;;;4969889;28;20049;-86
2023/08/04 01:35:29;;;;;;;0.03;0.03;;;15.20;99.90;;;;;;4967872;28;20038;-87
2023/08/04 01:37:55;;;;;;;0.10;0.10;;;15.20;99.90;;;;;;4971476;28;20030;-86
2023/08/04 01:40:20;;;;;;;0.20;0.20;;;15.10;99.90;;;;;;4968830;28;20496;-86
2023/08/04 01:42:46;;;;;;;0.10;0.10;;;15.00;99.90;;;;;;4972537;28;20113;-84
2023/08/04 01:45:12;;;;;;;0.10;0.10;;;14.90;99.90;;;;;;4967692;28;20030;-84
2023/08/04 01:47:39;;;;;;;0.10;0.10;;;14.90;99.90;;;;;;4964906;28;20026;-84
2023/08/04 01:50:07;;;;;;;0.10;0.10;;;14.90;99.90;;;;;;4965495;28;20035;-85
2023/08/04 01:52:32;;;;;;;0.50;0.50;;;15.00;99.90;;;;;;4967823;28;20038;-85
2023/08/04 01:54:58;;;;;;;0.27;0.27;;;15.10;99.90;;;;;;4973371;28;20027;-86
2023/08/04 01:57:24;;;;;;;0.10;0.10;;;15.20;99.90;;;;;;4963989;28;20054;-87
2023/08/04 01:59:50;;;;;;;0.10;0.10;;;15.20;99.90;;;;;;4967547;28;20398;-86
2023/08/04 02:02:15;;;;;;;0.20;0.20;;;15.20;99.90;;;;;;4966689;28;20042;-85
2023/08/04 02:04:41;;;;;;;0.00;0.00;;;15.30;99.90;;;;;;4968512;28;20030;-86
2023/08/04 02:07:06;;;;;;;0.10;0.10;;;15.20;99.90;;;;;;4970190;28;20056;-87
2023/08/04 02:09:33;;;;;;;0.10;0.10;;;15.30;99.90;;;;;;4969229;28;20035;-87
2023/08/04 02:11:59;;;;;;;0.00;0.00;;;15.30;99.90;;;;;;4970242;28;20027;-87
2023/08/04 02:14:28;;;;;;;1.23;0.95;;;15.30;99.90;;;;;;4968408;28;20039;-86
2023/08/04 02:16:54;;;;;;;4.18;0.43;;;15.30;99.90;;;;;;4965860;28;20039;-88
2023/08/04 02:19:23;;;;;;;0.00;0.00;;;15.20;99.90;;;;;;4965976;28;20038;-87
2023/08/04 02:21:49;;;;;;;0.10;0.10;;;15.20;99.90;;;;;;4916211;28;1321702;-86
2023/08/04 02:24:15;;;;;;;0.00;0.00;;;15.30;99.90;;;;;;4965807;28;20792;-86
2023/08/04 02:26:40;;;;;;;0.40;0.40;;;15.20;99.90;;;;;;4964579;28;20040;-85
2023/08/04 02:29:06;;;;;;;0.30;0.30;;;15.20;99.90;;;;;;4963190;28;20026;-85
2023/08/04 02:31:33;;;;;;;0.03;0.03;;;15.20;99.90;;;;;;4963611;28;20784;-85
2023/08/04 02:33:59;;;;;;;0.47;0.47;;;15.10;99.90;;;;;;4966272;28;20874;-85
2023/08/04 02:36:25;;;;;;;;;;;15.00;99.90;;;;;;4964561;28;20110;-85
2023/08/04 02:38:51;;;;;;;0.20;0.20;;;14.90;99.90;;;;;;4962991;28;19922;-86
2023/08/04 02:41:17;;;;;;;0.07;0.07;;;14.90;99.90;;;;;;4963264;28;20035;-85
2023/08/04 02:43:43;;;;;;;0.10;0.10;;;14.80;99.90;;;;;;4964316;28;20557;-84
2023/08/04 02:46:13;;;;;;;0.47;0.47;;;14.90;99.90;;;;;;4963623;28;20030;-85
2023/08/04 02:48:39;;;;;;;1.05;0.95;;;14.80;99.90;;;;;;4963958;28;20279;-84
2023/08/04 02:51:07;;;;;;;0.10;0.10;;;14.70;99.90;;;;;;4964625;28;20498;-85
2023/08/04 02:53:34;;;;;;;0.28;0.28;;;14.80;99.90;;;;;;4963620;28;20521;-84
2023/08/04 02:55:59;;;;;;;;;;;14.80;99.90;;;;;;4964596;28;20070;-84
2023/08/04 02:58:26;;;;;;;0.50;0.50;;;14.80;99.90;;;;;;4962264;28;19914;-84
2023/08/04 03:00:53;;;;;;;;;;;14.70;99.90;;;;;;4964855;28;20030;-84
2023/08/04 03:03:19;;;;;;;;;;;14.70;99.90;;;;;;4966951;28;19913;-85
2023/08/04 03:05:45;;;;;;;0.00;0.00;;;14.80;99.90;;;;;;4967883;28;19914;-84
2023/08/04 03:08:11;;;;;;;0.13;0.13;;;14.80;99.90;;;;;;4963445;28;20062;-86
2023/08/04 03:10:43;;;;;;;0.67;0.67;;;14.80;99.90;;;;;;4963033;28;20118;-85
2023/08/04 03:13:09;;;;;;;0.65;0.57;;;14.70;99.90;;;;;;4959604;28;20503;-84
2023/08/04 03:15:36;;;;;;;2.83;0.77;;;14.70;99.90;;;;;;4981166;28;20055;-86
2023/08/04 03:18:01;;;;;;;0.08;0.08;;;14.70;99.90;;;;;;4973795;28;20089;-86
2023/08/04 03:20:35;;;;;;;0.10;0.10;;;14.60;99.90;;;;;;4985901;28;20096;-86
2023/08/04 03:23:01;;;;;;;1.48;0.98;;;14.50;99.90;;;;;;4969175;28;20054;-85
2023/08/04 03:25:26;;;;;;;8.33;1.40;;;14.40;99.90;;;;;;4970615;28;20042;-87
2023/08/04 03:27:52;;;;;;;0.10;0.10;;;14.50;99.90;;;;;;4968350;28;20593;-86
2023/08/04 03:30:18;;;;;;;0.20;0.20;;;14.50;99.90;;;;;;4972434;28;20031;-89
2023/08/04 03:32:44;;;;;;;0.10;0.10;;;14.50;99.90;;;;;;4971492;28;20042;-89
2023/08/04 03:35:09;;;;;;;0.23;0.23;;;14.50;99.90;;;;;;4970740;28;20050;-86
2023/08/04 03:37:36;;;;;;;0.45;0.45;;;14.70;99.90;;;;;;4969277;28;20138;-87
2023/08/04 03:40:02;;;;;;;0.85;0.85;;;14.60;99.90;;;;;;4968706;28;20029;-88
2023/08/04 03:42:28;;;;;;;0.20;0.20;;;14.60;99.90;;;;;;4974193;28;20499;-87
2023/08/04 03:44:53;;;;;;;0.57;0.57;;;14.70;99.90;;;;;;4971296;28;20085;-89
2023/08/04 03:47:19;;;;;;;0.00;0.00;;;14.70;99.90;;;;;;4966880;28;20066;-87
2023/08/04 03:49:45;;;;;;;0.30;0.30;;;14.60;99.90;;;;;;4968989;28;20042;-89
2023/08/04 03:52:10;;;;;;;0.00;0.00;;;14.70;99.90;;;;;;4969963;28;20035;-87
2023/08/04 03:54:36;;;;;;;0.30;0.30;;;14.60;99.90;;;;;;4970313;28;20106;-87
2023/08/04 03:57:02;;;;;;;0.00;0.00;;;14.70;99.90;;;;;;4970494;28;20027;-86
2023/08/04 03:59:28;;;;;;;0.30;0.30;;;14.80;99.90;;;;;;4972472;28;20031;-85
2023/08/04 04:01:53;;;;;;;0.10;0.10;;;14.70;99.90;;;;;;4969600;28;20564;-86
2023/08/04 04:04:19;;;;;;;0.30;0.30;;;14.70;99.90;;;;;;4972553;28;20393;-87
2023/08/04 04:06:45;;;;;;;0.30;0.30;;;14.70;99.90;;;;;;4971209;28;20030;-87
2023/08/04 04:09:11;;;;;;;0.33;0.33;;;14.70;99.90;;;;;;4972750;28;20675;-87
2023/08/04 04:11:37;;;;;;;0.20;0.20;;;14.70;99.90;;;;;;4988722;28;20501;-88
2023/08/04 04:14:03;;;;;;;2.50;1.93;;;14.70;99.90;;;;;;4969816;28;20054;-87
2023/08/04 04:16:30;;;;;;;0.17;0.17;;;14.70;99.90;;;;;;4969849;28;20074;-86
2023/08/04 04:18:56;;;;;;;;;;;14.70;99.90;;;;;;4958370;28;20015;-86
2023/08/04 04:21:21;;;;;;;0.00;0.00;;;14.80;99.90;;;;;;4969794;28;20042;-86
2023/08/04 04:23:47;;;;;;;0.20;0.20;;;14.70;99.90;;;;;;4963306;28;20114;-87
2023/08/04 04:26:14;;;;;;;0.00;0.00;;;14.80;99.90;;;;;;4957775;28;20054;-84
2023/08/04 04:28:40;;;;;;;0.00;0.00;;;14.70;99.90;;;;;;4963900;28;20039;-84
2023/08/04 04:31:06;;;;;;;2.67;0.93;;;14.80;99.90;;;;;;4962510;28;20737;-83
2023/08/04 04:33:31;;;;;;;0.23;0.23;;;14.80;99.90;;;;;;4958958;28;20035;-81
2023/08/04 04:35:57;;;;;;;0.23;0.23;;;14.80;99.90;;;;;;4961347;28;20126;-82
2023/08/04 04:38:28;;;;;;;1.27;0.63;;;14.80;99.90;;;;;;4963222;28;20039;-83
2023/08/04 04:40:58;;;;;;;0.00;0.00;;;14.70;99.90;;;;;;4965118;28;20077;-82
2023/08/04 04:43:27;;;;;;;0.68;0.68;;;14.80;99.90;;;;;;4963388;28;20046;-82
2023/08/04 04:45:54;;;;;;;0.30;0.30;;;14.80;99.90;;;;;;4959185;28;20086;-83
2023/08/04 04:48:20;;;;;;;;;;;14.80;99.90;;;;;;4978572;28;20037;-82
2023/08/04 04:50:46;;;;;;;0.10;0.10;;;14.70;99.90;;;;;;4966730;28;19925;-82
2023/08/04 04:53:13;;;;;;;0.50;0.50;;;14.70;99.90;;;;;;4961585;28;20041;-81
2023/08/04 04:55:39;;;;;;;0.20;0.20;;;14.70;99.90;;;;;;4961260;28;20059;-83
2023/08/04 04:58:04;;;;;;;0.20;0.20;;;14.80;99.90;;;;;;4963333;28;20078;-83
2023/08/04 05:00:33;;;;;;;0.20;0.20;;;14.80;99.90;;;;;;4975471;28;20641;-83
2023/08/04 05:02:59;;;;;;;0.57;0.57;;;14.80;99.90;;;;;;4962490;28;20035;-83
2023/08/04 05:05:25;;;;;;;0.37;0.37;;;14.80;99.90;;;;;;4965187;28;20618;-84
2023/08/04 05:07:50;;;;;;;0.40;0.40;;;14.80;99.90;;;;;;4966899;28;20023;-83
2023/08/04 05:10:16;;;;;;;1.00;1.00;;;14.80;99.90;;;;;;4965751;28;20022;-84
2023/08/04 05:12:42;;;;;;;0.40;0.40;;;14.80;99.90;;;;;;4965552;28;20033;-82
2023/08/04 05:15:08;;;;;;;0.00;0.00;;;14.90;99.90;;;;;;4965576;28;20038;-84
2023/08/04 05:17:38;;;;;;;0.08;0.08;;;14.90;99.90;;;;;;4965123;28;20062;-83
2023/08/04 05:20:06;;;;;;;0.10;0.10;;;14.80;99.90;;;;;;4967005;28;20035;-83
2023/08/04 05:22:31;;;;;;;0.17;0.17;;;14.80;99.90;;;;;;4965295;28;20669;-86
2023/08/04 05:24:57;;;;;;;0.57;0.57;;;14.90;99.90;;;;;;4965202;28;20113;-81
2023/08/04 05:27:23;;;;;;;6.17;1.50;;;15.00;99.90;;;;;;4963665;28;20038;-81
2023/08/04 05:29:49;;;;;;;0.47;0.47;;;14.80;99.90;;;;;;4967707;28;20031;-80
2023/08/04 05:32:15;;;;;;;0.20;0.20;;;14.80;99.90;;;;;;4965423;28;20422;-81
2023/08/04 05:34:40;;;;;;;0.37;0.37;;;14.70;99.90;;;;;;4969906;28;20030;-80
2023/08/04 05:37:06;;;;;;;0.10;0.10;;;14.90;99.90;;;;;;4965945;28;20060;-79
2023/08/04 05:39:33;;;;;;;0.00;0.00;;;15.00;99.90;;;;;;4968456;28;20037;-79
2023/08/04 05:41:58;;;;;;;0.17;0.17;;;15.10;99.90;;;;;;4963298;28;20548;-76
2023/08/04 05:44:24;;;;;;;0.73;0.73;;;15.50;99.90;;;;;;4970165;28;20031;-78
2023/08/04 05:46:50;;;;;;;0.93;0.93;;;15.70;99.90;;;;;;4965576;28;20041;-78
2023/08/04 05:49:16;;;;;;;0.77;0.67;;;15.60;99.90;;;;;;4963773;28;20035;-78
2023/08/04 05:51:41;;;;;;;0.10;0.10;;;15.90;99.90;;;;;;4965535;28;20058;-81
2023/08/04 05:54:07;;;;;;;0.10;0.10;;;15.80;99.90;;;;;;4966013;28;20030;-76
2023/08/04 05:59:37;;;;;;;0.80;0.80;;;15.70;99.90;;;;;;4954764;28;20511;-77
2023/08/04 06:02:03;;;;;;;0.20;0.20;;;15.60;99.90;;;;;;4965100;28;20035;-79
2023/08/04 06:04:29;;;;;;;0.10;0.10;;;15.50;99.90;;;;;;4964422;28;20034;-80
2023/08/04 06:06:55;;;;;;;0.00;0.00;;;15.60;99.90;;;;;;4965530;28;20737;-80
2023/08/04 06:09:20;;;;;;;0.80;0.67;;;15.60;99.90;;;;;;4965028;28;20039;-81
2023/08/04 06:11:46;;;;;;;0.17;0.17;;;15.60;99.90;;;;;;4964445;28;20820;-80
2023/08/04 06:14:12;;;;;;;0.20;0.20;;;15.80;99.90;;;;;;4965044;28;20037;-80
2023/08/04 06:16:37;;;;;;;0.30;0.30;;;15.90;99.90;;;;;;4961858;28;20447;-79
2023/08/04 06:19:03;;;;;;;0.00;0.00;;;15.80;99.90;;;;;;4967656;28;20054;-80
2023/08/04 06:21:29;;;;;;;0.10;0.10;;;16.00;99.90;;;;;;4979964;28;20409;-79
2023/08/04 06:23:55;;;;;;;0.20;0.20;;;16.00;99.90;;;;;;4965174;28;20446;-80
2023/08/04 06:26:21;;;;;;;0.15;0.15;;;15.80;99.90;;;;;;4964153;28;20041;-81
2023/08/04 06:28:46;;;;;;;0.37;0.37;;;15.80;99.90;;;;;;4960469;28;20030;-82
2023/08/04 06:31:12;;;;;;;0.00;0.00;;;15.50;99.90;;;;;;4980261;28;20038;-78
2023/08/04 06:33:38;;;;;;;0.37;0.37;;;15.70;99.90;;;;;;4965425;28;20093;-82
2023/08/04 06:36:04;;;;;;;0.40;0.40;;;15.80;99.90;;;;;;4965422;28;20031;-79
2023/08/04 06:38:29;;;;;;;0.00;0.00;;;15.90;99.90;;;;;;4963438;28;20046;-80
2023/08/04 06:40:58;;;;;;;0.40;0.40;;;16.20;99.90;;;;;;4964809;28;20035;-79
2023/08/04 06:43:24;;;;;;;0.10;0.10;;;17.30;99.30;;;;;;4964685;28;20562;-81
2023/08/04 06:45:49;;;;;;;0.43;0.43;;;18.20;95.60;;;;;;4965192;28;20030;-79
2023/08/04 06:48:15;;;;;;;0.33;0.33;;;17.80;95.30;;;;;;4965164;28;20461;-78
2023/08/04 06:50:41;;;;;;;0.00;0.00;;;17.20;96.70;;;;;;4969727;28;20029;-82
2023/08/04 06:53:07;;;;;;;0.00;0.00;;;17.10;97.90;;;;;;4965008;28;20035;-82
2023/08/04 06:55:33;;;;;;;0.00;0.00;;;16.90;97.80;;;;;;4963425;28;20025;-79
2023/08/04 06:57:59;;;;;;;;;;;16.90;98.70;;;;;;4964958;28;20073;-79
2023/08/04 07:00:25;;;;;;;0.00;0.00;;;16.80;98.80;;;;;;4964267;28;19914;-80
2023/08/04 07:02:50;;;;;;;0.07;0.07;;;16.50;99.10;;;;;;4963510;28;20038;-79
2023/08/04 07:05:16;;;;;;;0.10;0.10;;;16.40;99.90;;;;;;4962169;28;20034;-79
2023/08/04 07:07:43;;;;;;;0.83;0.83;;;16.40;99.90;;;;;;4964622;28;20043;-79
2023/08/04 07:10:10;;;;;;;;;;;16.30;99.90;;;;;;4966969;28;20054;-80
2023/08/04 07:12:36;;;;;;;0.50;0.50;;;17.40;99.60;;;;;;4964973;28;20016;-81
2023/08/04 07:15:02;;;;;;;0.33;0.33;;;17.60;96.70;;;;;;4963113;28;20465;-79
2023/08/04 07:17:28;;;;;;;0.40;0.20;;;17.10;97.80;;;;;;4963950;28;20102;-79
2023/08/04 07:19:54;;;;;;;0.17;0.17;;;16.50;99.10;;;;;;4964701;28;20317;-79
2023/08/04 07:22:19;;;;;;;0.00;0.00;;;16.40;99.90;;;;;;4964506;28;20090;-81
2023/08/04 07:24:47;;;;;;;0.57;0.57;;;16.50;99.90;;;;;;4964433;28;20030;-80
2023/08/04 07:27:13;;;;;;;0.45;0.45;;;16.70;98.70;;;;;;4963201;28;20719;-79
2023/08/04 07:29:38;;;;;;;0.17;0.17;;;17.00;98.20;;;;;;4968325;28;20080;-80
2023/08/04 07:32:04;;;;;;;1.23;0.83;;;17.00;98.20;;;;;;4964071;28;20023;-79
2023/08/04 07:34:31;;;;;;;2.72;1.23;;;16.90;97.80;;;;;;4964001;28;20137;-79
2023/08/04 07:36:57;;;;;;;0.00;0.00;;;16.50;98.30;;;;;;4964091;28;20035;-79
2023/08/04 07:39:22;;;;;;;1.20;0.73;;;16.40;99.10;;;;;;4964110;28;20019;-80
2023/08/04 07:41:48;;;;;;;1.07;0.97;;;16.30;99.90;;;;;;4963523;28;20057;-79
2023/08/04 07:44:14;;;;;;;1.13;0.97;;;16.60;99.90;;;;;;4963812;28;20082;-80
2023/08/04 07:46:40;;;;;;;0.40;0.40;;;17.00;98.70;;;;;;4963827;28;20031;-79
2023/08/04 07:49:06;;;;;;;0.10;0.10;;;17.10;96.70;;;;;;4963668;28;20027;-81
2023/08/04 07:51:32;;;;;;;0.10;0.10;;;17.10;97.40;;;;;;4964073;28;20041;-82
2023/08/04 07:53:57;;;;;;;0.47;0.47;;;17.80;95.50;;;;;;4963996;28;20506;-79
2023/08/04 07:56:23;;;;;;;0.67;0.67;;;17.90;94.60;;;;;;4967446;28;20026;-79
2023/08/04 07:58:48;;;;;;;1.00;0.53;;;18.40;92.50;;;;;;4963400;28;20513;-81
2023/08/04 08:01:14;;;;;;;0.00;0.00;;;18.20;93.20;;;;;;4963606;28;20069;-79
2023/08/04 08:03:41;;;;;;;0.00;0.00;;;18.90;91.80;;;;;;4969260;28;20031;-81
2023/08/04 08:06:07;;;;;;;0.10;0.10;;;18.60;90.70;;;;;;4960524;28;20271;-81
2023/08/04 08:08:32;;;;;;;0.33;0.33;;;18.90;91.10;;;;;;4963747;28;20080;-79
2023/08/04 08:10:59;;;;;;;1.17;0.97;;;18.80;91.20;;;;;;4963283;28;20138;-80
2023/08/04 08:13:24;;;;;;;0.08;0.08;;;20.80;87.50;;;;;;4963543;28;20037;-80
2023/08/04 08:15:50;;;;;;;0.00;0.00;;;20.60;83.80;;;;;;4963268;28;20042;-80
2023/08/04 08:18:16;;;;;;;0.90;0.67;;;20.00;87.10;;;;;;4964028;28;20937;-80
2023/08/04 08:20:44;;;;;;;0.00;0.00;;;19.90;86.10;;;;;;4964377;28;20446;-82
2023/08/04 08:23:10;;;;;;;0.00;0.00;;;18.90;88.30;;;;;;4964024;28;20038;-79
2023/08/04 08:25:36;;;;;;;0.00;0.00;;;22.30;83.10;;;;;;4963741;28;20027;-80
2023/08/04 08:28:03;;;;;;;0.67;0.37;;;23.00;71.80;;;;;;4969319;28;20375;-82
2023/08/04 08:30:28;;;;;;;;;;;25.60;71.50;;;;;;4964080;28;20097;-80
2023/08/04 08:32:54;;;;;;;;;;;27.70;62.80;;;;;;4963854;28;19939;-79
2023/08/04 08:35:20;;;;;;;0.00;0.00;;;26.80;65.40;;;;;;4963616;28;20069;-80
2023/08/04 08:37:45;;;;;;;0.00;0.00;;;27.50;60.00;;;;;;4963115;28;20106;-81
2023/08/04 08:40:12;;;;;;;0.00;0.00;;;27.70;61.60;;;;;;4966394;28;20568;-81
2023/08/04 08:42:37;;;;;;;0.00;0.00;;;26.70;61.40;;;;;;4967487;28;20073;-79
2023/08/04 08:45:04;;;;;;;0.00;0.00;;;23.10;67.40;;;;;;4966864;28;20855;-80
2023/08/04 08:47:34;;;;;;;;;;;21.70;73.90;;;;;;4967758;28;20053;-79
2023/08/04 08:50:02;;;;;;;0.00;0.00;;;21.40;75.10;;;;;;4968511;28;19921;-80
2023/08/04 08:52:31;;;;;;;0.03;0.03;;;22.20;76.80;;;;;;4967014;28;20099;-80
2023/08/04 08:54:58;;;;;;;0.22;0.17;;;22.70;70.90;;;;;;4966472;28;20522;-80
2023/08/04 08:57:25;;;;;;;0.25;0.10;;;21.10;75.50;;;;;;4966506;28;20030;-81
2023/08/04 08:59:51;;;;;;;0.00;0.00;;;21.50;78.70;;;;;;4967014;28;20034;-81
2023/08/04 09:02:17;;;;;;;0.52;0.22;;;27.30;64.40;;;;;;4966456;28;20026;-80
2023/08/04 09:04:43;;;;;;;0.00;0.00;;;29.80;55.80;;;;;;4966523;28;20027;-80
2023/08/04 09:07:09;;;;;;;;;;;30.00;54.00;;;;;;4972889;28;20546;-80
2023/08/04 09:09:35;;;;;;;0.00;0.00;;;30.80;52.80;;;;;;4966697;28;19910;-80
2023/08/04 09:12:01;;;;;;;0.00;0.00;;;31.80;51.60;;;;;;4966104;28;20033;-80
2023/08/04 09:14:27;;;;;;;0.77;0.30;;;29.40;56.50;;;;;;4964942;28;20481;-79
2023/08/04 09:16:53;;;;;;;0.00;0.00;;;31.60;51.20;;;;;;4966766;28;20030;-81
2023/08/04 09:19:18;;;;;;;0.03;0.03;;;29.40;51.20;;;;;;4967828;28;20042;-80
2023/08/04 09:21:44;;;;;;;0.00;0.00;;;25.10;58.50;;;;;;4966444;28;20503;-79
2023/08/04 09:24:12;;;;;;;0.00;0.00;;;23.80;63.40;;;;;;4966296;28;20042;-79
2023/08/04 09:26:43;;;;;;;0.00;0.00;;;23.10;65.10;;;;;;4964651;28;20450;-78
2023/08/04 09:29:09;;;;;;;0.00;0.00;;;22.90;64.70;;;;;;4971726;28;20418;-79
2023/08/04 09:31:36;;;;;;;0.00;0.00;;;25.60;62.60;;;;;;4966156;28;20035;-81
2023/08/04 09:34:06;;;;;;;0.00;0.00;;;26.50;56.30;;;;;;4966179;28;20038;-80
2023/08/04 09:36:38;;;;;;;0.00;0.00;;;30.80;53.40;;;;;;4965892;28;20030;-81
2023/08/04 09:39:05;;;;;;;0.00;0.00;;;30.70;51.20;;;;;;4967278;28;21236;-80
2023/08/04 09:41:34;;;;;;;0.05;0.03;;;30.80;51.60;;;;;;4965549;28;20042;-79
2023/08/04 09:44:05;;;;;;;1.17;0.52;;;32.10;49.40;;;;;;4966412;28;20557;-80
2023/08/04 09:46:30;;;;;;;0.00;0.00;;;33.50;47.90;;;;;;4966412;28;20038;-80
2023/08/04 09:49:00;;;;;;;0.43;0.38;;;32.00;45.20;;;;;;4965909;28;20075;-80
2023/08/04 09:51:26;;;;;;;0.00;0.00;;;33.90;47.10;;;;;;4963361;28;20133;-80
2023/08/04 09:53:54;;;;;;;;;;;30.60;49.30;;;;;;4964964;28;20736;-82
2023/08/04 09:56:23;;;;;;;0.08;0.08;;;29.50;49.60;;;;;;4965489;28;19976;-81
2023/08/04 09:58:49;;;;;;;0.00;0.00;;;29.50;49.10;;;;;;4965573;28;20510;-79
2023/08/04 10:01:16;;;;;;;;;;;32.40;49.50;;;;;;4966117;28;20034;-79
2023/08/04 10:03:45;;;;;;;0.00;0.00;;;32.40;42.30;;;;;;4965387;28;19910;-79
2023/08/04 10:06:11;;;;;;;0.00;0.00;;;28.10;47.90;;;;;;4965727;28;20038;-80
2023/08/04 10:08:40;;;;;;;0.25;0.25;;;25.80;52.90;;;;;;4966135;28;20022;-79
2023/08/04 10:11:07;;;;;;;0.00;0.00;;;24.80;54.60;;;;;;4965816;28;20073;-80
2023/08/04 10:13:36;;;;;;;0.00;0.00;;;24.90;55.30;;;;;;4964287;28;20081;-80
2023/08/04 10:16:06;;;;;;;0.00;0.00;;;25.30;54.30;;;;;;4965573;28;20494;-81
2023/08/04 10:19:00;;;;;;;0.00;0.00;;;26.20;55.90;;;;;;4965780;28;20026;-82
2023/08/04 10:21:27;;;;;;;0.00;0.00;;;25.10;56.30;;;;;;4964469;28;20820;-80
2023/08/04 10:23:54;;;;;;;0.00;0.00;;;23.80;58.60;;;;;;4966201;28;20031;-79
2023/08/04 10:26:20;;;;;;;0.00;0.00;;;23.90;58.00;;;;;;4965298;28;20174;-79
2023/08/04 10:29:04;;;;;;;0.00;0.00;;;24.50;57.10;;;;;;4970435;28;20503;-81
2023/08/04 10:31:43;;;;;;;0.00;0.00;;;25.00;58.70;;;;;;4961407;28;20046;-79
2023/08/04 10:34:31;;;;;;;0.00;0.00;;;27.60;53.50;;;;;;4965900;28;20033;-79
2023/08/04 10:37:04;;;;;;;0.20;0.20;;;27.70;53.90;;;;;;4965123;28;20062;-81
2023/08/04 10:39:31;;;;;;;0.00;0.00;;;27.10;51.90;;;;;;4961378;28;20592;-80
2023/08/04 10:41:57;;;;;;;0.00;0.00;;;26.70;52.00;;;;;;4964880;28;20132;-79
2023/08/04 10:44:48;;;;;;;0.00;0.00;;;24.70;53.90;;;;;;4965593;28;20492;-80
2023/08/04 10:47:14;;;;;;;0.00;0.00;;;24.90;55.30;;;;;;4962078;28;20035;-79
2023/08/04 10:49:40;;;;;;;0.30;0.30;;;25.90;53.50;;;;;;4967144;28;20042;-79
2023/08/04 10:52:06;;;;;;;0.00;0.00;;;25.70;54.40;;;;;;4963658;28;20034;-79
2023/08/04 10:54:32;;;;;;;0.10;0.10;;;24.70;55.90;;;;;;4964698;28;20057;-80
2023/08/04 10:56:58;;;;;;;0.00;0.00;;;25.90;59.10;;;;;;4963348;28;20035;-79
2023/08/04 10:59:24;;;;;;;0.47;0.43;;;25.30;56.60;;;;;;4963430;28;20031;-81
2023/08/04 11:01:49;;;;;;;0.00;0.00;;;25.90;56.70;;;;;;4964256;28;20093;-79
2023/08/04 11:04:16;;;;;;;0.73;0.20;;;24.80;55.00;;;;;;4964362;28;20054;-79
2023/08/04 11:06:42;;;;;;;0.00;0.00;;;24.60;55.40;;;;;;4958172;28;20069;-84
2023/08/04 11:09:09;;;;;;;;;;;25.20;54.80;;;;;;4965207;28;20031;-80
2023/08/04 11:11:35;;;;;;;0.00;0.00;;;25.30;55.70;;;;;;4958206;28;19914;-79
2023/08/04 11:14:03;;;;;;;0.00;0.00;;;25.10;55.50;;;;;;4964829;28;20034;-79
2023/08/04 11:16:32;;;;;;;0.30;0.30;;;24.90;55.50;;;;;;4964603;28;20034;-82
2023/08/04 11:18:58;;;;;;;5.25;0.50;;;25.50;53.70;;;;;;4966456;28;20062;-79
2023/08/04 11:21:24;;;;;;;0.10;0.10;;;25.90;55.50;;;;;;4964647;28;20129;-80
2023/08/04 11:23:49;;;;;;;0.00;0.00;;;25.70;53.10;;;;;;4964872;28;20030;-78
2023/08/04 11:26:16;;;;;;;0.00;0.00;;;23.50;57.70;;;;;;4964412;28;20069;-79
2023/08/04 11:28:42;;;;;;;1.00;0.20;;;22.30;62.30;;;;;;4955268;28;20031;-79
2023/08/04 11:31:09;;;;;;;0.00;0.00;;;21.60;63.20;;;;;;4957204;28;20818;-80
2023/08/04 11:33:34;;;;;;;0.10;0.10;;;21.20;64.30;;;;;;4962998;28;20294;-79
2023/08/04 11:36:04;;;;;;;0.00;0.00;;;21.00;64.90;;;;;;4963043;28;20039;-78
2023/08/04 11:38:30;;;;;;;0.00;0.00;;;21.10;65.50;;;;;;4964383;28;20045;-79
2023/08/04 11:41:01;;;;;;;0.00;0.00;;;20.80;66.60;;;;;;4965698;28;20094;-79
2023/08/04 11:43:27;;;;;;;0.00;0.00;;;20.20;73.00;;;;;;4966407;28;20805;-81
2023/08/04 11:45:56;;;;;;;0.13;0.13;;;20.50;71.80;;;;;;4965234;28;20097;-79
2023/08/04 11:48:22;;;;;;;0.03;0.03;;;20.40;70.50;;;;;;4963992;28;20085;-82
2023/08/04 11:50:50;;;;;;;0.13;0.13;;;20.90;71.80;;;;;;4964937;28;20487;-79
2023/08/04 11:53:16;;;;;;;1.65;0.80;;;20.90;69.90;;;;;;4962166;28;20033;-79
2023/08/04 11:56:04;;;;;;;0.10;0.10;;;20.80;70.60;;;;;;4965608;28;20504;-79
2023/08/04 11:58:39;;;;;;;0.10;0.10;;;21.50;70.20;;;;;;4965871;28;20049;-80
2023/08/04 12:01:23;;;;;;;0.00;0.00;;;21.80;69.60;;;;;;4964890;28;20105;-79
2023/08/04 12:03:49;;;;;;;0.00;0.00;;;21.60;68.30;;;;;;4965591;28;20038;-79
2023/08/04 12:06:21;;;;;;;0.98;0.75;;;22.10;69.00;;;;;;4966166;28;20038;-79
2023/08/04 12:09:02;;;;;;;3.95;0.50;;;22.30;67.80;;;;;;4964082;28;20027;-79
2023/08/04 12:11:28;;;;;;;0.08;0.08;;;22.90;66.60;;;;;;4968808;28;20037;-80
2023/08/04 12:14:07;;;;;;;0.00;0.00;;;22.70;67.10;;;;;;4969416;28;20031;-80
2023/08/04 12:16:50;;;;;;;0.00;0.00;;;23.20;65.10;;;;;;4972800;28;20042;-82
2023/08/04 12:19:17;;;;;;;0.17;0.17;;;23.70;64.20;;;;;;4964525;28;20022;-81
2023/08/04 12:21:42;;;;;;;0.00;0.00;;;23.50;64.50;;;;;;4967245;28;20058;-79
2023/08/04 12:24:08;;;;;;;0.00;0.00;;;23.20;62.50;;;;;;4968451;28;20519;-81
2023/08/04 12:26:34;;;;;;;0.37;0.13;;;23.40;64.30;;;;;;4967986;28;20046;-80
2023/08/04 12:28:59;;;;;;;0.20;0.20;;;22.90;62.20;;;;;;4976935;28;20031;-79
2023/08/04 12:31:25;;;;;;;0.00;0.00;;;23.60;62.60;;;;;;4967966;28;20030;-82
2023/08/04 12:33:51;;;;;;;0.00;0.00;;;23.70;61.70;;;;;;4967671;28;20586;-80
2023/08/04 12:36:16;;;;;;;0.47;0.40;;;23.80;61.50;;;;;;4967490;28;20027;-79
2023/08/04 12:38:42;;;;;;;0.00;0.00;;;23.40;62.70;;;;;;4967725;28;20035;-78
2023/08/04 12:41:09;;;;;;;0.10;0.10;;;23.30;62.60;;;;;;4983226;28;20062;-79
2023/08/04 12:43:35;;;;;;;0.00;0.00;;;23.00;63.30;;;;;;4967540;28;20023;-81
2023/08/04 12:46:00;;;;;;;0.05;0.05;;;23.10;65.10;;;;;;4969510;28;20033;-78
2023/08/04 12:48:27;;;;;;;0.20;0.20;;;23.30;64.30;;;;;;4967288;28;20569;-81
2023/08/04 12:50:52;;;;;;;;;;;23.00;66.10;;;;;;4971476;28;20027;-79
2023/08/04 12:53:18;;;;;;;0.00;0.00;;;22.80;66.00;;;;;;4968107;28;19961;-81